sensor_id;sensor_type;location;lat;lon;timestamp;P1;durP1;ratioP1;P2;durP2;ratioP2
19867;SDS011;10096;51.112;6.776;2023-05-07T00:01:08;6.82;;;6.22;;
19867;SDS011;10096;51.112;6.776;2023-05-07T00:03:49;8.05;;;6.68;;
19867;SDS011;10096;51.112;6.776;2023-05-07T00:06:19;6.78;;;6.03;;
19867;SDS011;10096;51.112;6.776;2023-05-07T00:08:48;7.43;;;6.35;;
19867;SDS011;10096;51.112;6.776;2023-05-07T00:11:15;7.72;;;6.68;;
19867;SDS011;10096;51.112;6.776;2023-05-07T00:13:43;7.57;;;6.80;;
19867;SDS011;10096;51.112;6.776;2023-05-07T00:16:14;7.10;;;6.47;;
19867;SDS011;10096;51.112;6.776;2023-05-07T00:18:43;6.93;;;6.22;;
19867;SDS011;10096;51.112;6.776;2023-05-07T00:21:12;7.13;;;6.38;;
19867;SDS011;10096;51.112;6.776;2023-05-07T00:23:40;6.18;;;5.63;;
19867;SDS011;10096;51.112;6.776;2023-05-07T00:26:08;7.57;;;6.35;;
19867;SDS011;10096;51.112;6.776;2023-05-07T00:28:38;7.03;;;6.15;;
19867;SDS011;10096;51.112;6.776;2023-05-07T00:31:06;7.85;;;6.82;;
19867;SDS011;10096;51.112;6.776;2023-05-07T00:33:34;8.98;;;6.28;;
19867;SDS011;10096;51.112;6.776;2023-05-07T00:36:02;7.80;;;6.93;;
19867;SDS011;10096;51.112;6.776;2023-05-07T00:38:35;6.60;;;5.95;;
19867;SDS011;10096;51.112;6.776;2023-05-07T00:41:03;7.90;;;6.45;;
19867;SDS011;10096;51.112;6.776;2023-05-07T00:43:34;7.00;;;6.15;;
19867;SDS011;10096;51.112;6.776;2023-05-07T00:46:03;7.20;;;6.50;;
19867;SDS011;10096;51.112;6.776;2023-05-07T00:48:33;7.72;;;7.03;;
19867;SDS011;10096;51.112;6.776;2023-05-07T00:51:02;7.25;;;6.55;;
19867;SDS011;10096;51.112;6.776;2023-05-07T00:53:35;7.75;;;6.95;;
19867;SDS011;10096;51.112;6.776;2023-05-07T00:56:03;6.38;;;5.78;;
19867;SDS011;10096;51.112;6.776;2023-05-07T00:58:31;7.28;;;6.05;;
19867;SDS011;10096;51.112;6.776;2023-05-07T01:01:00;6.97;;;6.38;;
19867;SDS011;10096;51.112;6.776;2023-05-07T01:03:27;7.47;;;6.13;;
19867;SDS011;10096;51.112;6.776;2023-05-07T01:05:55;6.72;;;6.13;;
19867;SDS011;10096;51.112;6.776;2023-05-07T01:08:27;8.63;;;6.50;;
19867;SDS011;10096;51.112;6.776;2023-05-07T01:10:58;6.72;;;6.10;;
19867;SDS011;10096;51.112;6.776;2023-05-07T01:13:29;7.13;;;6.00;;
19867;SDS011;10096;51.112;6.776;2023-05-07T01:16:00;7.35;;;5.53;;
19867;SDS011;10096;51.112;6.776;2023-05-07T01:18:32;7.13;;;6.53;;
19867;SDS011;10096;51.112;6.776;2023-05-07T01:21:00;6.82;;;6.03;;
19867;SDS011;10096;51.112;6.776;2023-05-07T01:23:32;6.80;;;6.10;;
19867;SDS011;10096;51.112;6.776;2023-05-07T01:26:01;6.47;;;5.80;;
19867;SDS011;10096;51.112;6.776;2023-05-07T01:28:29;6.43;;;5.65;;
19867;SDS011;10096;51.112;6.776;2023-05-07T01:30:59;7.10;;;6.45;;
19867;SDS011;10096;51.112;6.776;2023-05-07T01:33:29;5.90;;;5.30;;
19867;SDS011;10096;51.112;6.776;2023-05-07T01:36:00;6.32;;;5.72;;
19867;SDS011;10096;51.112;6.776;2023-05-07T01:38:32;7.40;;;6.80;;
19867;SDS011;10096;51.112;6.776;2023-05-07T01:41:01;6.78;;;6.18;;
19867;SDS011;10096;51.112;6.776;2023-05-07T01:43:30;7.38;;;6.20;;
19867;SDS011;10096;51.112;6.776;2023-05-07T01:45:58;6.82;;;6.22;;
19867;SDS011;10096;51.112;6.776;2023-05-07T01:48:28;6.30;;;5.80;;
19867;SDS011;10096;51.112;6.776;2023-05-07T01:50:56;6.93;;;6.22;;
19867;SDS011;10096;51.112;6.776;2023-05-07T01:53:26;7.68;;;6.20;;
19867;SDS011;10096;51.112;6.776;2023-05-07T01:55:56;7.30;;;6.10;;
19867;SDS011;10096;51.112;6.776;2023-05-07T01:58:24;6.65;;;5.95;;
19867;SDS011;10096;51.112;6.776;2023-05-07T02:00:53;7.30;;;6.03;;
19867;SDS011;10096;51.112;6.776;2023-05-07T02:03:21;6.25;;;5.70;;
19867;SDS011;10096;51.112;6.776;2023-05-07T02:05:49;6.47;;;5.88;;
19867;SDS011;10096;51.112;6.776;2023-05-07T02:08:20;6.68;;;6.03;;
19867;SDS011;10096;51.112;6.776;2023-05-07T02:10:48;6.78;;;6.18;;
19867;SDS011;10096;51.112;6.776;2023-05-07T02:13:18;6.55;;;5.95;;
19867;SDS011;10096;51.112;6.776;2023-05-07T02:15:47;6.50;;;5.88;;
19867;SDS011;10096;51.112;6.776;2023-05-07T02:18:16;7.22;;;6.28;;
19867;SDS011;10096;51.112;6.776;2023-05-07T02:20:44;6.80;;;6.20;;
19867;SDS011;10096;51.112;6.776;2023-05-07T02:23:14;6.60;;;6.00;;
19867;SDS011;10096;51.112;6.776;2023-05-07T02:25:42;7.22;;;6.07;;
19867;SDS011;10096;51.112;6.776;2023-05-07T02:28:11;7.32;;;5.93;;
19867;SDS011;10096;51.112;6.776;2023-05-07T02:30:41;6.78;;;5.72;;
19867;SDS011;10096;51.112;6.776;2023-05-07T02:33:08;6.38;;;5.68;;
19867;SDS011;10096;51.112;6.776;2023-05-07T02:35:37;6.68;;;5.53;;
19867;SDS011;10096;51.112;6.776;2023-05-07T02:38:05;7.00;;;6.15;;
19867;SDS011;10096;51.112;6.776;2023-05-07T02:40:35;6.00;;;5.30;;
19867;SDS011;10096;51.112;6.776;2023-05-07T02:43:05;7.15;;;6.45;;
19867;SDS011;10096;51.112;6.776;2023-05-07T02:45:33;6.88;;;6.22;;
19867;SDS011;10096;51.112;6.776;2023-05-07T02:48:03;9.85;;;6.22;;
19867;SDS011;10096;51.112;6.776;2023-05-07T02:50:32;7.28;;;6.57;;
19867;SDS011;10096;51.112;6.776;2023-05-07T02:53:00;7.10;;;6.40;;
19867;SDS011;10096;51.112;6.776;2023-05-07T02:55:28;7.05;;;6.32;;
19867;SDS011;10096;51.112;6.776;2023-05-07T02:58:00;6.25;;;5.65;;
19867;SDS011;10096;51.112;6.776;2023-05-07T03:00:28;6.57;;;6.00;;
19867;SDS011;10096;51.112;6.776;2023-05-07T03:02:55;7.75;;;6.82;;
19867;SDS011;10096;51.112;6.776;2023-05-07T03:05:26;6.88;;;6.20;;
19867;SDS011;10096;51.112;6.776;2023-05-07T03:07:54;7.72;;;6.40;;
19867;SDS011;10096;51.112;6.776;2023-05-07T03:10:22;7.43;;;6.63;;
19867;SDS011;10096;51.112;6.776;2023-05-07T03:12:51;8.88;;;6.35;;
19867;SDS011;10096;51.112;6.776;2023-05-07T03:15:19;7.15;;;6.10;;
19867;SDS011;10096;51.112;6.776;2023-05-07T03:17:50;7.03;;;6.32;;
19867;SDS011;10096;51.112;6.776;2023-05-07T03:20:21;7.93;;;6.25;;
19867;SDS011;10096;51.112;6.776;2023-05-07T03:22:50;6.72;;;6.03;;
19867;SDS011;10096;51.112;6.776;2023-05-07T03:25:18;6.28;;;5.68;;
19867;SDS011;10096;51.112;6.776;2023-05-07T03:27:46;6.28;;;5.63;;
19867;SDS011;10096;51.112;6.776;2023-05-07T03:30:14;6.72;;;6.13;;
19867;SDS011;10096;51.112;6.776;2023-05-07T03:32:43;6.75;;;5.60;;
19867;SDS011;10096;51.112;6.776;2023-05-07T03:35:11;7.05;;;5.60;;
19867;SDS011;10096;51.112;6.776;2023-05-07T03:37:40;8.00;;;4.90;;
19867;SDS011;10096;51.112;6.776;2023-05-07T03:40:09;5.97;;;5.40;;
19867;SDS011;10096;51.112;6.776;2023-05-07T03:42:38;6.80;;;5.53;;
19867;SDS011;10096;51.112;6.776;2023-05-07T03:45:06;6.53;;;5.50;;
19867;SDS011;10096;51.112;6.776;2023-05-07T03:47:35;8.05;;;5.50;;
19867;SDS011;10096;51.112;6.776;2023-05-07T03:50:05;6.97;;;5.10;;
19867;SDS011;10096;51.112;6.776;2023-05-07T03:52:35;6.25;;;5.43;;
19867;SDS011;10096;51.112;6.776;2023-05-07T03:55:03;6.18;;;5.57;;
19867;SDS011;10096;51.112;6.776;2023-05-07T03:57:34;6.30;;;5.53;;
19867;SDS011;10096;51.112;6.776;2023-05-07T04:00:05;5.30;;;4.80;;
19867;SDS011;10096;51.112;6.776;2023-05-07T04:02:35;5.20;;;4.50;;
19867;SDS011;10096;51.112;6.776;2023-05-07T04:05:06;5.80;;;5.20;;
19867;SDS011;10096;51.112;6.776;2023-05-07T04:07:34;5.63;;;5.05;;
19867;SDS011;10096;51.112;6.776;2023-05-07T04:10:02;6.30;;;5.22;;
19867;SDS011;10096;51.112;6.776;2023-05-07T04:12:30;5.97;;;5.38;;
19867;SDS011;10096;51.112;6.776;2023-05-07T04:15:00;5.88;;;5.28;;
19867;SDS011;10096;51.112;6.776;2023-05-07T04:17:29;5.93;;;5.30;;
19867;SDS011;10096;51.112;6.776;2023-05-07T04:19:58;9.18;;;5.80;;
19867;SDS011;10096;51.112;6.776;2023-05-07T04:22:28;6.43;;;5.82;;
19867;SDS011;10096;51.112;6.776;2023-05-07T04:25:00;7.72;;;5.80;;
19867;SDS011;10096;51.112;6.776;2023-05-07T04:27:29;6.00;;;5.40;;
19867;SDS011;10096;51.112;6.776;2023-05-07T04:29:57;5.70;;;5.20;;
19867;SDS011;10096;51.112;6.776;2023-05-07T04:32:27;6.30;;;5.10;;
19867;SDS011;10096;51.112;6.776;2023-05-07T04:34:55;5.78;;;5.28;;
19867;SDS011;10096;51.112;6.776;2023-05-07T04:37:25;7.85;;;5.03;;
19867;SDS011;10096;51.112;6.776;2023-05-07T04:39:57;5.13;;;4.72;;
19867;SDS011;10096;51.112;6.776;2023-05-07T04:42:28;5.20;;;4.70;;
19867;SDS011;10096;51.112;6.776;2023-05-07T04:44:56;5.35;;;4.85;;
19867;SDS011;10096;51.112;6.776;2023-05-07T04:47:26;4.80;;;4.28;;
19867;SDS011;10096;51.112;6.776;2023-05-07T04:49:54;6.03;;;4.95;;
19867;SDS011;10096;51.112;6.776;2023-05-07T04:52:22;4.88;;;4.47;;
19867;SDS011;10096;51.112;6.776;2023-05-07T04:54:50;5.82;;;5.28;;
19867;SDS011;10096;51.112;6.776;2023-05-07T04:57:18;6.05;;;5.18;;
19867;SDS011;10096;51.112;6.776;2023-05-07T04:59:46;6.03;;;5.25;;
19867;SDS011;10096;51.112;6.776;2023-05-07T05:02:15;5.28;;;4.78;;
19867;SDS011;10096;51.112;6.776;2023-05-07T05:04:46;6.15;;;4.72;;
19867;SDS011;10096;51.112;6.776;2023-05-07T05:07:14;6.50;;;4.63;;
19867;SDS011;10096;51.112;6.776;2023-05-07T05:09:45;5.13;;;4.45;;
19867;SDS011;10096;51.112;6.776;2023-05-07T05:12:12;5.57;;;5.07;;
19867;SDS011;10096;51.112;6.776;2023-05-07T05:14:43;6.40;;;5.47;;
19867;SDS011;10096;51.112;6.776;2023-05-07T05:17:14;5.55;;;4.88;;
19867;SDS011;10096;51.112;6.776;2023-05-07T05:19:42;5.45;;;4.95;;
19867;SDS011;10096;51.112;6.776;2023-05-07T05:22:12;5.68;;;5.10;;
19867;SDS011;10096;51.112;6.776;2023-05-07T05:24:43;5.72;;;4.90;;
19867;SDS011;10096;51.112;6.776;2023-05-07T05:27:11;5.18;;;4.68;;
19867;SDS011;10096;51.112;6.776;2023-05-07T05:29:41;5.05;;;4.65;;
19867;SDS011;10096;51.112;6.776;2023-05-07T05:32:09;5.68;;;5.07;;
19867;SDS011;10096;51.112;6.776;2023-05-07T05:34:37;5.70;;;4.65;;
19867;SDS011;10096;51.112;6.776;2023-05-07T05:37:08;4.70;;;4.15;;
19867;SDS011;10096;51.112;6.776;2023-05-07T05:39:43;4.68;;;4.28;;
19867;SDS011;10096;51.112;6.776;2023-05-07T05:42:12;4.40;;;3.92;;
19867;SDS011;10096;51.112;6.776;2023-05-07T05:44:40;4.68;;;4.25;;
19867;SDS011;10096;51.112;6.776;2023-05-07T05:47:08;4.07;;;3.75;;
19867;SDS011;10096;51.112;6.776;2023-05-07T05:49:38;5.60;;;4.32;;
19867;SDS011;10096;51.112;6.776;2023-05-07T05:52:09;5.30;;;3.67;;
19867;SDS011;10096;51.112;6.776;2023-05-07T05:54:38;4.28;;;3.88;;
19867;SDS011;10096;51.112;6.776;2023-05-07T05:57:10;5.13;;;4.35;;
19867;SDS011;10096;51.112;6.776;2023-05-07T05:59:39;4.40;;;3.85;;
19867;SDS011;10096;51.112;6.776;2023-05-07T06:02:07;4.50;;;3.92;;
19867;SDS011;10096;51.112;6.776;2023-05-07T06:04:35;4.78;;;4.32;;
19867;SDS011;10096;51.112;6.776;2023-05-07T06:07:03;4.75;;;4.20;;
19867;SDS011;10096;51.112;6.776;2023-05-07T06:09:34;6.45;;;4.28;;
19867;SDS011;10096;51.112;6.776;2023-05-07T06:12:04;4.88;;;4.35;;
19867;SDS011;10096;51.112;6.776;2023-05-07T06:14:34;6.82;;;4.35;;
19867;SDS011;10096;51.112;6.776;2023-05-07T06:17:01;7.32;;;4.85;;
19867;SDS011;10096;51.112;6.776;2023-05-07T06:19:31;4.60;;;4.15;;
19867;SDS011;10096;51.112;6.776;2023-05-07T06:21:59;5.53;;;3.83;;
19867;SDS011;10096;51.112;6.776;2023-05-07T06:24:28;5.75;;;4.38;;
19867;SDS011;10096;51.112;6.776;2023-05-07T06:26:56;4.68;;;4.28;;
19867;SDS011;10096;51.112;6.776;2023-05-07T06:29:26;5.25;;;4.35;;
19867;SDS011;10096;51.112;6.776;2023-05-07T06:32:05;5.72;;;4.80;;
19867;SDS011;10096;51.112;6.776;2023-05-07T06:34:34;6.40;;;4.97;;
19867;SDS011;10096;51.112;6.776;2023-05-07T06:37:02;5.70;;;4.55;;
19867;SDS011;10096;51.112;6.776;2023-05-07T06:39:30;4.85;;;4.45;;
19867;SDS011;10096;51.112;6.776;2023-05-07T06:42:03;4.88;;;4.38;;
19867;SDS011;10096;51.112;6.776;2023-05-07T06:44:35;8.68;;;4.82;;
19867;SDS011;10096;51.112;6.776;2023-05-07T06:47:04;5.38;;;4.88;;
19867;SDS011;10096;51.112;6.776;2023-05-07T06:49:34;6.75;;;4.90;;
19867;SDS011;10096;51.112;6.776;2023-05-07T06:52:03;4.88;;;4.18;;
19867;SDS011;10096;51.112;6.776;2023-05-07T06:54:34;4.72;;;4.25;;
19867;SDS011;10096;51.112;6.776;2023-05-07T06:57:04;5.35;;;4.30;;
19867;SDS011;10096;51.112;6.776;2023-05-07T06:59:36;5.00;;;4.05;;
19867;SDS011;10096;51.112;6.776;2023-05-07T07:02:04;4.53;;;4.10;;
19867;SDS011;10096;51.112;6.776;2023-05-07T07:04:32;5.50;;;4.85;;
19867;SDS011;10096;51.112;6.776;2023-05-07T07:07:03;4.65;;;4.10;;
19867;SDS011;10096;51.112;6.776;2023-05-07T07:09:33;4.85;;;4.22;;
19867;SDS011;10096;51.112;6.776;2023-05-07T07:12:05;4.65;;;4.05;;
19867;SDS011;10096;51.112;6.776;2023-05-07T07:14:41;4.53;;;4.13;;
19867;SDS011;10096;51.112;6.776;2023-05-07T07:17:09;5.63;;;3.60;;
19867;SDS011;10096;51.112;6.776;2023-05-07T07:19:40;4.88;;;4.38;;
19867;SDS011;10096;51.112;6.776;2023-05-07T07:22:08;4.15;;;3.05;;
19867;SDS011;10096;51.112;6.776;2023-05-07T07:24:36;3.00;;;2.58;;
19867;SDS011;10096;51.112;6.776;2023-05-07T07:27:04;2.97;;;2.60;;
19867;SDS011;10096;51.112;6.776;2023-05-07T07:29:32;2.95;;;2.72;;
19867;SDS011;10096;51.112;6.776;2023-05-07T07:32:04;4.40;;;3.20;;
19867;SDS011;10096;51.112;6.776;2023-05-07T07:34:32;3.47;;;2.60;;
19867;SDS011;10096;51.112;6.776;2023-05-07T07:36:59;3.05;;;2.78;;
19867;SDS011;10096;51.112;6.776;2023-05-07T07:39:30;3.13;;;2.75;;
19867;SDS011;10096;51.112;6.776;2023-05-07T07:42:01;4.80;;;3.40;;
19867;SDS011;10096;51.112;6.776;2023-05-07T07:44:34;4.20;;;3.58;;
19867;SDS011;10096;51.112;6.776;2023-05-07T07:47:07;5.30;;;3.60;;
19867;SDS011;10096;51.112;6.776;2023-05-07T07:49:34;3.97;;;2.72;;
19867;SDS011;10096;51.112;6.776;2023-05-07T07:52:02;3.20;;;2.70;;
19867;SDS011;10096;51.112;6.776;2023-05-07T07:54:30;4.03;;;3.22;;
19867;SDS011;10096;51.112;6.776;2023-05-07T07:56:58;3.97;;;3.03;;
19867;SDS011;10096;51.112;6.776;2023-05-07T07:59:30;3.70;;;3.40;;
19867;SDS011;10096;51.112;6.776;2023-05-07T08:02:01;4.90;;;4.40;;
19867;SDS011;10096;51.112;6.776;2023-05-07T08:04:35;3.80;;;3.40;;
19867;SDS011;10096;51.112;6.776;2023-05-07T08:07:06;3.85;;;3.55;;
19867;SDS011;10096;51.112;6.776;2023-05-07T08:09:36;3.63;;;2.97;;
19867;SDS011;10096;51.112;6.776;2023-05-07T08:12:04;3.83;;;2.58;;
19867;SDS011;10096;51.112;6.776;2023-05-07T08:14:32;2.60;;;2.40;;
19867;SDS011;10096;51.112;6.776;2023-05-07T08:17:06;2.70;;;2.50;;
19867;SDS011;10096;51.112;6.776;2023-05-07T08:19:36;3.20;;;2.67;;
19867;SDS011;10096;51.112;6.776;2023-05-07T08:22:09;3.05;;;2.85;;
19867;SDS011;10096;51.112;6.776;2023-05-07T08:24:39;2.88;;;2.67;;
19867;SDS011;10096;51.112;6.776;2023-05-07T08:27:07;4.75;;;3.40;;
19867;SDS011;10096;51.112;6.776;2023-05-07T08:29:34;3.72;;;3.42;;
19867;SDS011;10096;51.112;6.776;2023-05-07T08:32:02;9.45;;;8.65;;
19867;SDS011;10096;51.112;6.776;2023-05-07T08:34:30;3.63;;;3.30;;
19867;SDS011;10096;51.112;6.776;2023-05-07T08:37:04;3.38;;;3.08;;
19867;SDS011;10096;51.112;6.776;2023-05-07T08:39:35;3.47;;;3.13;;
19867;SDS011;10096;51.112;6.776;2023-05-07T08:42:03;3.20;;;2.55;;
19867;SDS011;10096;51.112;6.776;2023-05-07T08:44:32;3.00;;;2.70;;
19867;SDS011;10096;51.112;6.776;2023-05-07T08:47:01;3.20;;;2.90;;
19867;SDS011;10096;51.112;6.776;2023-05-07T08:49:29;3.42;;;3.10;;
19867;SDS011;10096;51.112;6.776;2023-05-07T08:52:02;4.55;;;3.00;;
19867;SDS011;10096;51.112;6.776;2023-05-07T08:54:31;3.35;;;3.05;;
19867;SDS011;10096;51.112;6.776;2023-05-07T08:57:00;3.00;;;2.80;;
19867;SDS011;10096;51.112;6.776;2023-05-07T08:59:31;3.30;;;2.70;;
19867;SDS011;10096;51.112;6.776;2023-05-07T09:01:59;3.35;;;3.05;;
19867;SDS011;10096;51.112;6.776;2023-05-07T09:04:27;5.47;;;2.80;;
19867;SDS011;10096;51.112;6.776;2023-05-07T09:06:57;3.38;;;3.08;;
19867;SDS011;10096;51.112;6.776;2023-05-07T09:09:33;3.55;;;3.05;;
19867;SDS011;10096;51.112;6.776;2023-05-07T09:12:00;3.60;;;3.30;;
19867;SDS011;10096;51.112;6.776;2023-05-07T09:14:36;3.00;;;2.72;;
19867;SDS011;10096;51.112;6.776;2023-05-07T09:17:04;3.90;;;2.90;;
19867;SDS011;10096;51.112;6.776;2023-05-07T09:19:32;3.20;;;2.60;;
19867;SDS011;10096;51.112;6.776;2023-05-07T09:22:01;4.80;;;3.80;;
19867;SDS011;10096;51.112;6.776;2023-05-07T09:24:36;3.80;;;3.35;;
19867;SDS011;10096;51.112;6.776;2023-05-07T09:27:03;4.05;;;3.75;;
19867;SDS011;10096;51.112;6.776;2023-05-07T09:29:38;4.10;;;3.75;;
19867;SDS011;10096;51.112;6.776;2023-05-07T09:32:08;4.32;;;3.30;;
19867;SDS011;10096;51.112;6.776;2023-05-07T09:34:36;3.67;;;3.35;;
19867;SDS011;10096;51.112;6.776;2023-05-07T09:37:04;4.13;;;3.42;;
19867;SDS011;10096;51.112;6.776;2023-05-07T09:39:49;3.58;;;3.28;;
19867;SDS011;10096;51.112;6.776;2023-05-07T09:42:22;4.80;;;3.30;;
19867;SDS011;10096;51.112;6.776;2023-05-07T09:44:51;3.83;;;3.47;;
19867;SDS011;10096;51.112;6.776;2023-05-07T09:47:23;3.90;;;3.58;;
19867;SDS011;10096;51.112;6.776;2023-05-07T09:49:53;4.07;;;3.60;;
19867;SDS011;10096;51.112;6.776;2023-05-07T09:52:26;3.30;;;3.08;;
19867;SDS011;10096;51.112;6.776;2023-05-07T09:55:00;4.93;;;3.58;;
19867;SDS011;10096;51.112;6.776;2023-05-07T09:57:28;3.47;;;3.15;;
19867;SDS011;10096;51.112;6.776;2023-05-07T10:00:02;4.40;;;4.00;;
19867;SDS011;10096;51.112;6.776;2023-05-07T10:02:30;4.93;;;4.22;;
19867;SDS011;10096;51.112;6.776;2023-05-07T10:05:05;5.35;;;4.25;;
19867;SDS011;10096;51.112;6.776;2023-05-07T10:07:33;4.13;;;3.83;;
19867;SDS011;10096;51.112;6.776;2023-05-07T10:10:05;3.90;;;3.60;;
19867;SDS011;10096;51.112;6.776;2023-05-07T10:12:46;5.95;;;3.97;;
19867;SDS011;10096;51.112;6.776;2023-05-07T10:15:26;5.38;;;3.67;;
19867;SDS011;10096;51.112;6.776;2023-05-07T10:17:57;3.97;;;3.67;;
19867;SDS011;10096;51.112;6.776;2023-05-07T10:20:32;3.72;;;3.40;;
19867;SDS011;10096;51.112;6.776;2023-05-07T10:23:01;4.65;;;4.07;;
19867;SDS011;10096;51.112;6.776;2023-05-07T10:25:34;4.88;;;4.28;;
19867;SDS011;10096;51.112;6.776;2023-05-07T10:28:04;5.28;;;4.20;;
19867;SDS011;10096;51.112;6.776;2023-05-07T10:30:40;4.30;;;3.90;;
19867;SDS011;10096;51.112;6.776;2023-05-07T10:33:25;2.47;;;2.28;;
19867;SDS011;10096;51.112;6.776;2023-05-07T10:35:58;2.72;;;2.22;;
19867;SDS011;10096;51.112;6.776;2023-05-07T10:38:32;3.03;;;1.90;;
19867;SDS011;10096;51.112;6.776;2023-05-07T10:41:04;3.10;;;2.28;;
19867;SDS011;10096;51.112;6.776;2023-05-07T10:43:38;1.70;;;1.60;;
19867;SDS011;10096;51.112;6.776;2023-05-07T10:46:15;1.92;;;1.83;;
19867;SDS011;10096;51.112;6.776;2023-05-07T10:51:35;2.35;;;2.22;;
19867;SDS011;10096;51.112;6.776;2023-05-07T10:54:19;2.17;;;2.08;;
19867;SDS011;10096;51.112;6.776;2023-05-07T10:56:50;2.83;;;2.42;;
19867;SDS011;10096;51.112;6.776;2023-05-07T10:59:30;2.80;;;2.60;;
19867;SDS011;10096;51.112;6.776;2023-05-07T11:02:05;2.63;;;2.30;;
19867;SDS011;10096;51.112;6.776;2023-05-07T11:04:35;2.45;;;2.25;;
19867;SDS011;10096;51.112;6.776;2023-05-07T11:09:56;2.60;;;2.40;;
19867;SDS011;10096;51.112;6.776;2023-05-07T11:15:41;1.95;;;1.83;;
19867;SDS011;10096;51.112;6.776;2023-05-07T11:18:12;2.40;;;2.30;;
19867;SDS011;10096;51.112;6.776;2023-05-07T11:20:46;4.18;;;2.40;;
19867;SDS011;10096;51.112;6.776;2023-05-07T11:26:30;3.03;;;2.72;;
19867;SDS011;10096;51.112;6.776;2023-05-07T11:29:12;2.92;;;2.63;;
19867;SDS011;10096;51.112;6.776;2023-05-07T11:31:40;4.38;;;2.45;;
19867;SDS011;10096;51.112;6.776;2023-05-07T11:34:08;2.90;;;2.58;;
19867;SDS011;10096;51.112;6.776;2023-05-07T11:36:45;2.95;;;2.67;;
19867;SDS011;10096;51.112;6.776;2023-05-07T11:39:25;2.63;;;2.40;;
19867;SDS011;10096;51.112;6.776;2023-05-07T11:41:54;3.95;;;3.00;;
19867;SDS011;10096;51.112;6.776;2023-05-07T11:44:23;3.33;;;2.97;;
19867;SDS011;10096;51.112;6.776;2023-05-07T11:46:51;3.00;;;2.70;;
19867;SDS011;10096;51.112;6.776;2023-05-07T11:49:20;2.85;;;2.60;;
19867;SDS011;10096;51.112;6.776;2023-05-07T11:51:56;5.85;;;3.00;;
19867;SDS011;10096;51.112;6.776;2023-05-07T11:54:26;2.60;;;2.40;;
19867;SDS011;10096;51.112;6.776;2023-05-07T11:57:03;2.92;;;2.55;;
19867;SDS011;10096;51.112;6.776;2023-05-07T11:59:39;3.53;;;2.42;;
19867;SDS011;10096;51.112;6.776;2023-05-07T12:02:10;3.33;;;2.75;;
19867;SDS011;10096;51.112;6.776;2023-05-07T12:04:49;5.25;;;3.17;;
19867;SDS011;10096;51.112;6.776;2023-05-07T12:07:17;2.90;;;2.60;;
19867;SDS011;10096;51.112;6.776;2023-05-07T12:09:48;2.75;;;2.55;;
19867;SDS011;10096;51.112;6.776;2023-05-07T12:12:22;2.75;;;2.47;;
19867;SDS011;10096;51.112;6.776;2023-05-07T12:14:53;2.78;;;2.30;;
19867;SDS011;10096;51.112;6.776;2023-05-07T12:17:24;3.47;;;2.65;;
19867;SDS011;10096;51.112;6.776;2023-05-07T12:19:53;2.58;;;2.38;;
19867;SDS011;10096;51.112;6.776;2023-05-07T12:22:21;3.28;;;2.80;;
19867;SDS011;10096;51.112;6.776;2023-05-07T12:25:02;3.05;;;2.63;;
19867;SDS011;10096;51.112;6.776;2023-05-07T12:27:36;2.80;;;2.53;;
19867;SDS011;10096;51.112;6.776;2023-05-07T12:30:11;3.50;;;2.72;;
19867;SDS011;10096;51.112;6.776;2023-05-07T12:32:52;3.10;;;2.90;;
19867;SDS011;10096;51.112;6.776;2023-05-07T12:35:27;4.55;;;2.97;;
19867;SDS011;10096;51.112;6.776;2023-05-07T12:37:59;6.35;;;3.67;;
19867;SDS011;10096;51.112;6.776;2023-05-07T12:40:36;4.28;;;2.80;;
19867;SDS011;10096;51.112;6.776;2023-05-07T12:43:06;3.70;;;2.60;;
19867;SDS011;10096;51.112;6.776;2023-05-07T12:45:38;2.85;;;2.60;;
19867;SDS011;10096;51.112;6.776;2023-05-07T12:48:07;3.38;;;3.08;;
19867;SDS011;10096;51.112;6.776;2023-05-07T12:50:42;3.83;;;2.83;;
19867;SDS011;10096;51.112;6.776;2023-05-07T12:53:10;4.05;;;3.03;;
19867;SDS011;10096;51.112;6.776;2023-05-07T12:55:42;7.97;;;3.25;;
19867;SDS011;10096;51.112;6.776;2023-05-07T12:58:20;3.83;;;2.97;;
19867;SDS011;10096;51.112;6.776;2023-05-07T13:00:58;3.50;;;3.20;;
19867;SDS011;10096;51.112;6.776;2023-05-07T13:03:29;3.03;;;2.70;;
19867;SDS011;10096;51.112;6.776;2023-05-07T13:05:59;3.28;;;2.50;;
19867;SDS011;10096;51.112;6.776;2023-05-07T13:08:31;2.88;;;2.53;;
19867;SDS011;10096;51.112;6.776;2023-05-07T13:11:00;3.30;;;2.95;;
19867;SDS011;10096;51.112;6.776;2023-05-07T13:13:33;3.38;;;2.63;;
19867;SDS011;10096;51.112;6.776;2023-05-07T13:16:13;2.55;;;2.30;;
19867;SDS011;10096;51.112;6.776;2023-05-07T13:18:41;2.95;;;2.55;;
19867;SDS011;10096;51.112;6.776;2023-05-07T13:21:24;3.47;;;2.28;;
19867;SDS011;10096;51.112;6.776;2023-05-07T13:23:53;2.83;;;2.63;;
19867;SDS011;10096;51.112;6.776;2023-05-07T13:26:26;2.85;;;2.33;;
19867;SDS011;10096;51.112;6.776;2023-05-07T13:28:56;10.43;;;4.70;;
19867;SDS011;10096;51.112;6.776;2023-05-07T13:31:25;4.35;;;2.72;;
19867;SDS011;10096;51.112;6.776;2023-05-07T13:33:52;3.83;;;3.53;;
19867;SDS011;10096;51.112;6.776;2023-05-07T13:36:21;3.63;;;3.33;;
19867;SDS011;10096;51.112;6.776;2023-05-07T13:38:51;5.30;;;2.78;;
19867;SDS011;10096;51.112;6.776;2023-05-07T13:41:26;2.85;;;2.65;;
19867;SDS011;10096;51.112;6.776;2023-05-07T13:43:54;3.05;;;2.63;;
19867;SDS011;10096;51.112;6.776;2023-05-07T13:46:26;8.52;;;3.42;;
19867;SDS011;10096;51.112;6.776;2023-05-07T13:48:57;4.80;;;4.15;;
19867;SDS011;10096;51.112;6.776;2023-05-07T13:51:27;4.03;;;3.72;;
19867;SDS011;10096;51.112;6.776;2023-05-07T13:54:02;2.70;;;2.50;;
19867;SDS011;10096;51.112;6.776;2023-05-07T13:56:33;4.55;;;2.97;;
19867;SDS011;10096;51.112;6.776;2023-05-07T14:01:39;4.70;;;4.18;;
19867;SDS011;10096;51.112;6.776;2023-05-07T14:04:07;3.15;;;2.65;;
19867;SDS011;10096;51.112;6.776;2023-05-07T14:06:34;3.25;;;2.70;;
19867;SDS011;10096;51.112;6.776;2023-05-07T14:09:02;4.00;;;3.00;;
19867;SDS011;10096;51.112;6.776;2023-05-07T14:11:31;4.13;;;3.72;;
19867;SDS011;10096;51.112;6.776;2023-05-07T14:14:09;5.07;;;3.75;;
19867;SDS011;10096;51.112;6.776;2023-05-07T14:16:43;3.95;;;3.65;;
19867;SDS011;10096;51.112;6.776;2023-05-07T14:19:12;4.45;;;4.00;;
19867;SDS011;10096;51.112;6.776;2023-05-07T14:21:41;5.07;;;4.22;;
19867;SDS011;10096;51.112;6.776;2023-05-07T14:24:10;4.30;;;3.90;;
19867;SDS011;10096;51.112;6.776;2023-05-07T14:26:42;4.00;;;3.47;;
19867;SDS011;10096;51.112;6.776;2023-05-07T14:29:10;5.03;;;4.10;;
19867;SDS011;10096;51.112;6.776;2023-05-07T14:31:47;4.97;;;4.28;;
19867;SDS011;10096;51.112;6.776;2023-05-07T14:34:24;5.30;;;4.80;;
19867;SDS011;10096;51.112;6.776;2023-05-07T14:36:56;5.95;;;5.07;;
19867;SDS011;10096;51.112;6.776;2023-05-07T14:39:26;5.35;;;4.85;;
19867;SDS011;10096;51.112;6.776;2023-05-07T14:41:56;6.47;;;4.30;;
19867;SDS011;10096;51.112;6.776;2023-05-07T14:44:33;5.10;;;4.60;;
19867;SDS011;10096;51.112;6.776;2023-05-07T14:47:02;5.43;;;4.60;;
19867;SDS011;10096;51.112;6.776;2023-05-07T14:49:42;5.80;;;5.20;;
19867;SDS011;10096;51.112;6.776;2023-05-07T14:52:12;5.93;;;4.90;;
19867;SDS011;10096;51.112;6.776;2023-05-07T14:54:47;5.82;;;4.88;;
19867;SDS011;10096;51.112;6.776;2023-05-07T14:57:17;6.28;;;4.78;;
19867;SDS011;10096;51.112;6.776;2023-05-07T14:59:48;6.30;;;5.20;;
19867;SDS011;10096;51.112;6.776;2023-05-07T15:02:25;5.90;;;4.60;;
19867;SDS011;10096;51.112;6.776;2023-05-07T15:04:57;6.50;;;4.50;;
19867;SDS011;10096;51.112;6.776;2023-05-07T15:07:28;5.75;;;4.35;;
19867;SDS011;10096;51.112;6.776;2023-05-07T15:10:02;5.03;;;4.13;;
19867;SDS011;10096;51.112;6.776;2023-05-07T15:12:34;4.03;;;3.63;;
19867;SDS011;10096;51.112;6.776;2023-05-07T15:15:06;4.20;;;3.80;;
19867;SDS011;10096;51.112;6.776;2023-05-07T15:17:38;4.68;;;3.92;;
19867;SDS011;10096;51.112;6.776;2023-05-07T15:20:10;4.60;;;3.95;;
19867;SDS011;10096;51.112;6.776;2023-05-07T15:22:42;3.60;;;3.30;;